sensor_id;sensor_type;location;lat;lon;timestamp;pressure;altitude;pressure_sealevel;temperature;humidity
1776;BME280;885;42.626;23.200;2022-10-31T00:01:32;78461.19;;;12.46;76.98
1776;BME280;885;42.626;23.200;2022-10-31T00:03:59;78165.25;;;11.68;80.56
1776;BME280;885;42.626;23.200;2022-10-31T00:06:27;78278.34;;;11.95;79.97
1776;BME280;885;42.626;23.200;2022-10-31T00:08:56;78298.88;;;11.79;81.71
1776;BME280;885;42.626;23.200;2022-10-31T00:11:24;78265.38;;;11.80;81.09
1776;BME280;885;42.626;23.200;2022-10-31T00:13:51;78252.44;;;11.81;80.72
1776;BME280;885;42.626;23.200;2022-10-31T00:16:20;78247.47;;;11.77;81.06
1776;BME280;885;42.626;23.200;2022-10-31T00:18:48;78226.41;;;11.71;81.76
1776;BME280;885;42.626;23.200;2022-10-31T00:21:15;78242.75;;;11.75;81.63
1776;BME280;885;42.626;23.200;2022-10-31T00:23:44;78263.91;;;11.60;82.58
1776;BME280;885;42.626;23.200;2022-10-31T00:26:12;78245.16;;;11.66;82.92
1776;BME280;885;42.626;23.200;2022-10-31T00:28:39;78317.91;;;11.76;82.54
1776;BME280;885;42.626;23.200;2022-10-31T00:31:07;78304.66;;;11.75;81.96
1776;BME280;885;42.626;23.200;2022-10-31T00:33:36;78294.81;;;11.62;83.04
1776;BME280;885;42.626;23.200;2022-10-31T00:36:04;78213.06;;;11.31;85.50
1776;BME280;885;42.626;23.200;2022-10-31T00:38:31;78301.00;;;11.51;85.19
1776;BME280;885;42.626;23.200;2022-10-31T00:40:59;78278.66;;;11.49;85.21
1776;BME280;885;42.626;23.200;2022-10-31T00:43:26;78307.94;;;11.52;85.26
1776;BME280;885;42.626;23.200;2022-10-31T00:45:53;78367.88;;;11.71;84.35
1776;BME280;885;42.626;23.200;2022-10-31T00:48:20;78274.81;;;11.51;85.44
1776;BME280;885;42.626;23.200;2022-10-31T00:50:46;78308.56;;;11.53;84.95
1776;BME280;885;42.626;23.200;2022-10-31T00:53:13;78298.19;;;11.51;84.56
1776;BME280;885;42.626;23.200;2022-10-31T00:55:40;78144.78;;;11.07;87.08
1776;BME280;885;42.626;23.200;2022-10-31T00:58:08;78235.34;;;11.21;87.27
1776;BME280;885;42.626;23.200;2022-10-31T01:00:35;78287.28;;;11.29;87.15
1776;BME280;885;42.626;23.200;2022-10-31T01:03:02;78307.16;;;11.29;87.30
1776;BME280;885;42.626;23.200;2022-10-31T01:05:29;78322.31;;;11.27;88.38
1776;BME280;885;42.626;23.200;2022-10-31T01:07:56;78391.66;;;11.33;88.42
1776;BME280;885;42.626;23.200;2022-10-31T01:10:22;78365.38;;;11.37;87.01
1776;BME280;885;42.626;23.200;2022-10-31T01:12:49;78414.75;;;11.47;86.62
1776;BME280;885;42.626;23.200;2022-10-31T01:15:20;78369.63;;;11.45;86.13
1776;BME280;885;42.626;23.200;2022-10-31T01:17:48;78373.91;;;11.37;86.65
1776;BME280;885;42.626;23.200;2022-10-31T01:20:15;78407.28;;;11.41;87.30
1776;BME280;885;42.626;23.200;2022-10-31T01:22:42;78434.56;;;11.51;86.81
1776;BME280;885;42.626;23.200;2022-10-31T01:25:09;78516.19;;;11.60;88.47
1776;BME280;885;42.626;23.200;2022-10-31T01:27:37;78570.38;;;11.67;88.28
1776;BME280;885;42.626;23.200;2022-10-31T01:30:05;78508.06;;;11.74;85.71
1776;BME280;885;42.626;23.200;2022-10-31T01:32:33;78660.03;;;11.91;86.98
1776;BME280;885;42.626;23.200;2022-10-31T01:35:00;78753.94;;;12.07;85.96
1776;BME280;885;42.626;23.200;2022-10-31T01:37:27;78773.66;;;12.21;86.04
1776;BME280;885;42.626;23.200;2022-10-31T01:39:53;78963.53;;;12.54;83.66
1776;BME280;885;42.626;23.200;2022-10-31T01:42:22;78965.69;;;12.58;83.98
1776;BME280;885;42.626;23.200;2022-10-31T01:44:58;79066.66;;;12.80;81.98
1776;BME280;885;42.626;23.200;2022-10-31T01:47:39;79060.91;;;12.85;82.18
1776;BME280;885;42.626;23.200;2022-10-31T01:50:13;79029.94;;;12.83;81.84
1776;BME280;885;42.626;23.200;2022-10-31T01:52:43;79084.84;;;12.95;81.51
1776;BME280;885;42.626;23.200;2022-10-31T01:55:13;79110.19;;;12.92;81.91
1776;BME280;885;42.626;23.200;2022-10-31T01:57:44;79105.06;;;12.97;80.63
1776;BME280;885;42.626;23.200;2022-10-31T02:00:13;79180.25;;;13.12;81.45
1776;BME280;885;42.626;23.200;2022-10-31T02:02:41;79255.78;;;13.24;81.13
1776;BME280;885;42.626;23.200;2022-10-31T02:05:10;79236.44;;;13.29;78.17
1776;BME280;885;42.626;23.200;2022-10-31T02:07:43;79293.88;;;13.48;77.90
1776;BME280;885;42.626;23.200;2022-10-31T02:10:12;79332.19;;;13.49;79.02
1776;BME280;885;42.626;23.200;2022-10-31T02:12:39;79317.94;;;13.49;78.22
1776;BME280;885;42.626;23.200;2022-10-31T02:15:08;79264.91;;;13.34;78.50
1776;BME280;885;42.626;23.200;2022-10-31T02:17:35;79167.06;;;13.31;78.31
1776;BME280;885;42.626;23.200;2022-10-31T02:20:12;79291.41;;;13.41;78.79
1776;BME280;885;42.626;23.200;2022-10-31T02:22:56;79294.59;;;13.39;79.06
1776;BME280;885;42.626;23.200;2022-10-31T02:25:56;79309.47;;;13.44;79.14
1776;BME280;885;42.626;23.200;2022-10-31T02:28:42;79367.84;;;13.66;77.67
1776;BME280;885;42.626;23.200;2022-10-31T02:31:25;79405.13;;;13.78;76.13
1776;BME280;885;42.626;23.200;2022-10-31T02:33:58;79483.63;;;13.90;76.26
1776;BME280;885;42.626;23.200;2022-10-31T02:36:27;79492.50;;;13.93;76.42
1776;BME280;885;42.626;23.200;2022-10-31T02:39:02;79527.34;;;13.93;75.75
1776;BME280;885;42.626;23.200;2022-10-31T02:41:37;79467.78;;;13.91;75.23
1776;BME280;885;42.626;23.200;2022-10-31T02:44:09;79496.22;;;14.00;74.96
1776;BME280;885;42.626;23.200;2022-10-31T02:46:44;79515.22;;;14.02;76.16
1776;BME280;885;42.626;23.200;2022-10-31T02:49:21;79502.00;;;13.91;75.69
1776;BME280;885;42.626;23.200;2022-10-31T02:51:49;79471.53;;;13.99;74.98
1776;BME280;885;42.626;23.200;2022-10-31T02:54:18;79526.59;;;14.11;73.31
1776;BME280;885;42.626;23.200;2022-10-31T02:56:46;79562.66;;;14.21;73.41
1776;BME280;885;42.626;23.200;2022-10-31T02:59:14;79553.16;;;14.18;74.64
1776;BME280;885;42.626;23.200;2022-10-31T03:01:57;79516.16;;;14.05;75.23
1776;BME280;885;42.626;23.200;2022-10-31T03:04:59;79520.97;;;13.97;74.02
1776;BME280;885;42.626;23.200;2022-10-31T03:07:38;79463.56;;;13.99;75.60
1776;BME280;885;42.626;23.200;2022-10-31T03:10:14;79468.75;;;13.90;76.11
1776;BME280;885;42.626;23.200;2022-10-31T03:12:48;79425.72;;;13.78;76.16
1776;BME280;885;42.626;23.200;2022-10-31T03:15:19;79456.44;;;13.82;76.44
1776;BME280;885;42.626;23.200;2022-10-31T03:17:54;79448.81;;;13.85;76.66
1776;BME280;885;42.626;23.200;2022-10-31T03:20:27;79438.09;;;13.77;77.67
1776;BME280;885;42.626;23.200;2022-10-31T03:22:57;79271.34;;;13.55;77.82
1776;BME280;885;42.626;23.200;2022-10-31T03:25:26;79361.47;;;13.70;76.59
1776;BME280;885;42.626;23.200;2022-10-31T03:27:53;79416.91;;;13.71;77.47
1776;BME280;885;42.626;23.200;2022-10-31T03:30:21;79322.31;;;13.57;77.67
1776;BME280;885;42.626;23.200;2022-10-31T03:32:50;79262.81;;;13.50;77.86
1776;BME280;885;42.626;23.200;2022-10-31T03:35:21;79221.47;;;13.38;78.75
1776;BME280;885;42.626;23.200;2022-10-31T03:37:52;79235.03;;;13.42;78.81
1776;BME280;885;42.626;23.200;2022-10-31T03:40:21;79236.28;;;13.43;78.79
1776;BME280;885;42.626;23.200;2022-10-31T03:42:53;79147.91;;;13.18;80.65
1776;BME280;885;42.626;23.200;2022-10-31T03:45:24;79196.69;;;13.16;81.15
1776;BME280;885;42.626;23.200;2022-10-31T03:47:52;79112.16;;;13.14;80.91
1776;BME280;885;42.626;23.200;2022-10-31T03:50:23;79120.78;;;13.10;81.16
1776;BME280;885;42.626;23.200;2022-10-31T03:52:54;79132.16;;;13.10;80.72
1776;BME280;885;42.626;23.200;2022-10-31T03:55:28;79224.22;;;13.17;81.26
1776;BME280;885;42.626;23.200;2022-10-31T03:57:59;79188.13;;;13.16;81.42
1776;BME280;885;42.626;23.200;2022-10-31T04:00:27;79173.94;;;13.11;81.31
1776;BME280;885;42.626;23.200;2022-10-31T04:03:01;79158.06;;;13.17;81.21
1776;BME280;885;42.626;23.200;2022-10-31T04:05:31;79110.13;;;12.97;82.13
1776;BME280;885;42.626;23.200;2022-10-31T04:08:00;79056.44;;;12.90;82.65
1776;BME280;885;42.626;23.200;2022-10-31T04:10:29;79112.75;;;12.90;82.76
1776;BME280;885;42.626;23.200;2022-10-31T04:13:01;79092.56;;;12.83;83.23
1776;BME280;885;42.626;23.200;2022-10-31T04:15:31;79027.75;;;12.78;83.54
1776;BME280;885;42.626;23.200;2022-10-31T04:17:59;79002.91;;;12.65;84.30
1776;BME280;885;42.626;23.200;2022-10-31T04:20:32;79092.22;;;12.85;83.28
1776;BME280;885;42.626;23.200;2022-10-31T04:22:59;79089.38;;;12.85;83.36
1776;BME280;885;42.626;23.200;2022-10-31T04:25:26;79110.81;;;12.93;82.77
1776;BME280;885;42.626;23.200;2022-10-31T04:27:53;79139.28;;;12.93;83.33
1776;BME280;885;42.626;23.200;2022-10-31T04:30:20;79083.13;;;12.80;84.54
1776;BME280;885;42.626;23.200;2022-10-31T04:32:47;79092.63;;;12.78;84.78
1776;BME280;885;42.626;23.200;2022-10-31T04:35:14;79127.69;;;12.86;84.28
1776;BME280;885;42.626;23.200;2022-10-31T04:37:44;79189.31;;;12.92;83.58
1776;BME280;885;42.626;23.200;2022-10-31T04:40:11;79153.31;;;12.86;84.35
1776;BME280;885;42.626;23.200;2022-10-31T04:42:38;79138.81;;;12.78;84.63
1776;BME280;885;42.626;23.200;2022-10-31T04:45:06;79146.50;;;12.71;85.02
1776;BME280;885;42.626;23.200;2022-10-31T04:47:33;79085.16;;;12.67;84.82
1776;BME280;885;42.626;23.200;2022-10-31T04:50:00;79184.28;;;12.88;83.77
1776;BME280;885;42.626;23.200;2022-10-31T04:52:27;79212.69;;;12.97;84.01
1776;BME280;885;42.626;23.200;2022-10-31T04:54:55;79217.81;;;12.92;83.79
1776;BME280;885;42.626;23.200;2022-10-31T04:57:22;79157.09;;;12.84;84.38
1776;BME280;885;42.626;23.200;2022-10-31T04:59:48;79146.63;;;12.87;83.41
1776;BME280;885;42.626;23.200;2022-10-31T05:02:15;79259.16;;;13.04;83.25
1776;BME280;885;42.626;23.200;2022-10-31T05:04:42;79294.19;;;13.16;82.17
1776;BME280;885;42.626;23.200;2022-10-31T05:07:09;79372.00;;;13.24;82.08
1776;BME280;885;42.626;23.200;2022-10-31T05:09:35;79368.81;;;13.26;82.22
1776;BME280;885;42.626;23.200;2022-10-31T05:12:04;79375.53;;;13.20;82.62
1776;BME280;885;42.626;23.200;2022-10-31T05:14:31;79342.34;;;13.14;82.68
1776;BME280;885;42.626;23.200;2022-10-31T05:16:58;79314.56;;;13.01;84.02
1776;BME280;885;42.626;23.200;2022-10-31T05:19:24;79245.66;;;12.91;84.78
1776;BME280;885;42.626;23.200;2022-10-31T05:21:51;79228.25;;;12.89;85.21
1776;BME280;885;42.626;23.200;2022-10-31T05:24:18;79269.09;;;12.87;84.97
1776;BME280;885;42.626;23.200;2022-10-31T05:26:47;79250.47;;;12.84;85.08
1776;BME280;885;42.626;23.200;2022-10-31T05:29:15;79297.56;;;12.92;84.96
1776;BME280;885;42.626;23.200;2022-10-31T05:31:42;79237.81;;;12.83;85.06
1776;BME280;885;42.626;23.200;2022-10-31T05:34:08;79306.72;;;12.92;84.60
1776;BME280;885;42.626;23.200;2022-10-31T05:36:35;79203.34;;;12.80;85.33
1776;BME280;885;42.626;23.200;2022-10-31T05:39:02;79222.34;;;12.82;85.38
1776;BME280;885;42.626;23.200;2022-10-31T05:41:29;79248.88;;;12.85;85.09
1776;BME280;885;42.626;23.200;2022-10-31T05:43:56;79299.47;;;12.89;85.06
1776;BME280;885;42.626;23.200;2022-10-31T05:46:24;79231.25;;;12.75;85.37
1776;BME280;885;42.626;23.200;2022-10-31T05:48:51;79206.25;;;12.75;85.48
1776;BME280;885;42.626;23.200;2022-10-31T05:51:17;79260.25;;;12.85;84.91
1776;BME280;885;42.626;23.200;2022-10-31T05:53:45;79284.66;;;12.84;85.26
1776;BME280;885;42.626;23.200;2022-10-31T05:56:12;79309.63;;;12.88;85.12
1776;BME280;885;42.626;23.200;2022-10-31T05:58:39;79265.03;;;12.82;85.39
1776;BME280;885;42.626;23.200;2022-10-31T06:01:06;79234.06;;;12.80;85.16
1776;BME280;885;42.626;23.200;2022-10-31T06:03:34;79267.22;;;12.86;84.93
1776;BME280;885;42.626;23.200;2022-10-31T06:06:01;79277.34;;;12.85;85.37
1776;BME280;885;42.626;23.200;2022-10-31T06:08:28;79256.25;;;12.74;85.93
1776;BME280;885;42.626;23.200;2022-10-31T06:10:54;79282.81;;;12.77;85.54
1776;BME280;885;42.626;23.200;2022-10-31T06:13:21;79250.84;;;12.77;85.72
1776;BME280;885;42.626;23.200;2022-10-31T06:15:48;79249.56;;;12.76;85.76
1776;BME280;885;42.626;23.200;2022-10-31T06:18:15;79317.25;;;12.80;85.96
1776;BME280;885;42.626;23.200;2022-10-31T06:20:43;79307.09;;;12.86;85.72
1776;BME280;885;42.626;23.200;2022-10-31T06:23:09;79346.03;;;12.83;86.03
1776;BME280;885;42.626;23.200;2022-10-31T06:25:36;79347.63;;;12.82;86.17
1776;BME280;885;42.626;23.200;2022-10-31T06:28:03;79387.75;;;12.89;85.78
1776;BME280;885;42.626;23.200;2022-10-31T06:30:30;79389.94;;;12.93;85.54
1776;BME280;885;42.626;23.200;2022-10-31T06:33:01;79338.75;;;12.84;86.54
1776;BME280;885;42.626;23.200;2022-10-31T06:35:28;79397.56;;;12.90;86.48
1776;BME280;885;42.626;23.200;2022-10-31T06:37:56;79414.97;;;12.92;86.34
1776;BME280;885;42.626;23.200;2022-10-31T06:40:23;79391.19;;;12.98;85.94
1776;BME280;885;42.626;23.200;2022-10-31T06:42:56;79476.03;;;12.98;86.12
1776;BME280;885;42.626;23.200;2022-10-31T06:45:23;79468.72;;;12.99;85.30
1776;BME280;885;42.626;23.200;2022-10-31T06:47:51;79428.50;;;13.01;85.57
1776;BME280;885;42.626;23.200;2022-10-31T06:50:18;79466.47;;;13.04;84.95
1776;BME280;885;42.626;23.200;2022-10-31T06:52:50;79457.00;;;13.01;85.43
1776;BME280;885;42.626;23.200;2022-10-31T06:55:18;79492.13;;;13.08;86.22
1776;BME280;885;42.626;23.200;2022-10-31T06:57:49;79546.25;;;13.13;86.37
1776;BME280;885;42.626;23.200;2022-10-31T07:00:16;79555.09;;;13.15;86.04
1776;BME280;885;42.626;23.200;2022-10-31T07:02:43;79519.97;;;13.03;86.25
1776;BME280;885;42.626;23.200;2022-10-31T07:05:10;79568.41;;;13.08;86.89
1776;BME280;885;42.626;23.200;2022-10-31T07:07:37;79497.59;;;12.88;88.37
1776;BME280;885;42.626;23.200;2022-10-31T07:10:04;79625.41;;;13.08;88.04
1776;BME280;885;42.626;23.200;2022-10-31T07:12:33;79735.25;;;13.16;88.69
1776;BME280;885;42.626;23.200;2022-10-31T07:14:59;79864.44;;;13.37;88.12
1776;BME280;885;42.626;23.200;2022-10-31T07:17:26;80004.78;;;13.51;88.35
1776;BME280;885;42.626;23.200;2022-10-31T07:19:53;80191.88;;;13.86;86.84
1776;BME280;885;42.626;23.200;2022-10-31T07:22:19;80504.28;;;14.44;83.82
1776;BME280;885;42.626;23.200;2022-10-31T07:24:46;80830.25;;;15.04;80.50
1776;BME280;885;42.626;23.200;2022-10-31T07:27:13;80990.31;;;15.49;75.93
1776;BME280;885;42.626;23.200;2022-10-31T07:29:41;81349.16;;;16.02;74.10
1776;BME280;885;42.626;23.200;2022-10-31T07:32:08;81899.34;;;16.80;71.72
1776;BME280;885;42.626;23.200;2022-10-31T07:34:34;82365.78;;;17.43;68.56
1776;BME280;885;42.626;23.200;2022-10-31T07:37:01;82859.44;;;18.09;66.02
1776;BME280;885;42.626;23.200;2022-10-31T07:39:28;83189.81;;;18.53;64.02
1776;BME280;885;42.626;23.200;2022-10-31T07:41:57;83222.44;;;18.62;62.59
1776;BME280;885;42.626;23.200;2022-10-31T07:44:24;83320.56;;;18.78;62.40
1776;BME280;885;42.626;23.200;2022-10-31T07:46:52;83416.31;;;18.89;61.63
1776;BME280;885;42.626;23.200;2022-10-31T07:49:19;83363.91;;;18.82;62.55
1776;BME280;885;42.626;23.200;2022-10-31T07:51:46;83579.88;;;19.07;61.78
1776;BME280;885;42.626;23.200;2022-10-31T07:54:13;83869.09;;;19.47;59.73
1776;BME280;885;42.626;23.200;2022-10-31T07:56:39;84133.34;;;19.81;57.84
1776;BME280;885;42.626;23.200;2022-10-31T07:59:06;84910.53;;;20.47;57.62
1776;BME280;885;42.626;23.200;2022-10-31T08:01:33;84785.88;;;20.38;56.98
1776;BME280;885;42.626;23.200;2022-10-31T08:04:01;85502.22;;;21.20;52.85
1776;BME280;885;42.626;23.200;2022-10-31T08:06:31;86805.88;;;22.24;51.35
1776;BME280;885;42.626;23.200;2022-10-31T08:08:59;87305.81;;;22.63;49.78
1776;BME280;885;42.626;23.200;2022-10-31T08:11:26;87100.41;;;22.57;49.50
1776;BME280;885;42.626;23.200;2022-10-31T08:13:53;86738.44;;;22.34;50.21
1776;BME280;885;42.626;23.200;2022-10-31T08:16:20;86648.78;;;22.32;49.77
1776;BME280;885;42.626;23.200;2022-10-31T08:18:46;86929.31;;;22.48;50.19
1776;BME280;885;42.626;23.200;2022-10-31T08:21:14;86843.06;;;22.49;49.80
1776;BME280;885;42.626;23.200;2022-10-31T08:23:41;86230.13;;;21.98;50.86
1776;BME280;885;42.626;23.200;2022-10-31T08:26:08;85324.91;;;21.30;51.87
1776;BME280;885;42.626;23.200;2022-10-31T08:28:35;85309.69;;;21.23;53.34
1776;BME280;885;42.626;23.200;2022-10-31T08:31:04;84813.72;;;20.83;53.66
1776;BME280;885;42.626;23.200;2022-10-31T08:33:33;84934.91;;;20.91;54.01
1776;BME280;885;42.626;23.200;2022-10-31T08:36:00;85206.59;;;21.13;53.50
1776;BME280;885;42.626;23.200;2022-10-31T08:38:28;84998.13;;;21.02;53.58
1776;BME280;885;42.626;23.200;2022-10-31T08:40:54;85016.97;;;20.94;54.95
1776;BME280;885;42.626;23.200;2022-10-31T08:43:21;84783.28;;;20.84;54.33
1776;BME280;885;42.626;23.200;2022-10-31T08:45:51;85002.97;;;20.97;54.70
1776;BME280;885;42.626;23.200;2022-10-31T08:48:20;85124.59;;;21.01;54.69
1776;BME280;885;42.626;23.200;2022-10-31T08:50:47;85178.94;;;21.07;54.09
1776;BME280;885;42.626;23.200;2022-10-31T08:53:15;85148.50;;;21.08;53.88
1776;BME280;885;42.626;23.200;2022-10-31T08:55:44;85211.38;;;21.23;53.67
1776;BME280;885;42.626;23.200;2022-10-31T08:58:12;85422.53;;;21.45;52.39
1776;BME280;885;42.626;23.200;2022-10-31T09:00:39;85573.03;;;21.51;52.65
1776;BME280;885;42.626;23.200;2022-10-31T09:03:09;85717.53;;;21.68;52.07
1776;BME280;885;42.626;23.200;2022-10-31T09:05:36;85416.81;;;21.51;50.90
1776;BME280;885;42.626;23.200;2022-10-31T09:08:04;85464.09;;;21.56;51.26
1776;BME280;885;42.626;23.200;2022-10-31T09:10:33;85841.41;;;21.83;50.95
1776;BME280;885;42.626;23.200;2022-10-31T09:13:03;86017.03;;;22.01;50.36
1776;BME280;885;42.626;23.200;2022-10-31T09:15:32;86118.03;;;22.05;50.73
1776;BME280;885;42.626;23.200;2022-10-31T09:17:59;86267.59;;;22.18;50.51
1776;BME280;885;42.626;23.200;2022-10-31T09:20:27;86169.97;;;22.16;50.58
1776;BME280;885;42.626;23.200;2022-10-31T09:22:58;86299.78;;;22.22;50.49
1776;BME280;885;42.626;23.200;2022-10-31T09:25:26;85897.53;;;21.94;50.85
1776;BME280;885;42.626;23.200;2022-10-31T09:27:56;85862.28;;;21.92;50.78
1776;BME280;885;42.626;23.200;2022-10-31T09:30:25;86068.81;;;22.05;51.08
1776;BME280;885;42.626;23.200;2022-10-31T09:32:56;86216.28;;;22.25;50.61
1776;BME280;885;42.626;23.200;2022-10-31T09:35:23;86454.19;;;22.38;50.22
1776;BME280;885;42.626;23.200;2022-10-31T09:37:54;86801.78;;;22.67;49.37
1776;BME280;885;42.626;23.200;2022-10-31T09:40:21;87136.53;;;22.98;48.24
1776;BME280;885;42.626;23.200;2022-10-31T09:42:55;87481.03;;;23.19;48.18
1776;BME280;885;42.626;23.200;2022-10-31T09:45:32;87216.94;;;23.00;48.43
1776;BME280;885;42.626;23.200;2022-10-31T09:50:52;87464.72;;;23.24;47.43
1776;BME280;885;42.626;23.200;2022-10-31T09:53:25;87610.84;;;23.41;46.47
1776;BME280;885;42.626;23.200;2022-10-31T09:55:54;87600.47;;;23.44;46.22
1776;BME280;885;42.626;23.200;2022-10-31T09:58:24;87779.78;;;23.54;46.55
1776;BME280;885;42.626;23.200;2022-10-31T10:00:54;88227.75;;;23.91;45.00
1776;BME280;885;42.626;23.200;2022-10-31T10:03:30;88625.75;;;24.20;44.82
1776;BME280;885;42.626;23.200;2022-10-31T10:06:06;88741.84;;;24.24;44.66
1776;BME280;885;42.626;23.200;2022-10-31T10:08:37;88454.34;;;24.18;43.35
1776;BME280;885;42.626;23.200;2022-10-31T10:11:15;88030.75;;;23.93;43.82
1776;BME280;885;42.626;23.200;2022-10-31T10:14:06;88306.56;;;24.10;43.91
1776;BME280;885;42.626;23.200;2022-10-31T10:16:49;88521.69;;;24.22;43.93
1776;BME280;885;42.626;23.200;2022-10-31T10:19:29;89182.16;;;24.60;44.37
1776;BME280;885;42.626;23.200;2022-10-31T10:22:07;89398.94;;;24.78;44.07
1776;BME280;885;42.626;23.200;2022-10-31T10:24:51;89174.38;;;24.71;43.56
1776;BME280;885;42.626;23.200;2022-10-31T10:27:26;88873.13;;;24.58;43.20
1776;BME280;885;42.626;23.200;2022-10-31T10:30:00;88925.13;;;24.51;44.04
1776;BME280;885;42.626;23.200;2022-10-31T10:32:30;89352.59;;;24.88;42.89
1776;BME280;885;42.626;23.200;2022-10-31T10:35:03;89936.97;;;25.10;43.76
1776;BME280;885;42.626;23.200;2022-10-31T10:37:36;90061.56;;;25.29;42.53
1776;BME280;885;42.626;23.200;2022-10-31T10:40:11;90327.78;;;25.42;42.53
1776;BME280;885;42.626;23.200;2022-10-31T10:42:39;91190.75;;;26.05;40.70
1776;BME280;885;42.626;23.200;2022-10-31T10:45:23;91266.59;;;26.07;41.21
1776;BME280;885;42.626;23.200;2022-10-31T10:48:27;91972.44;;;26.55;39.88
1776;BME280;885;42.626;23.200;2022-10-31T10:50:57;92214.84;;;26.57;40.23
1776;BME280;885;42.626;23.200;2022-10-31T10:53:35;92308.25;;;26.69;39.95
1776;BME280;885;42.626;23.200;2022-10-31T10:56:16;92247.59;;;26.80;38.49
1776;BME280;885;42.626;23.200;2022-10-31T10:58:44;92292.78;;;26.97;37.88
1776;BME280;885;42.626;23.200;2022-10-31T11:01:12;93184.00;;;27.37;37.58
1776;BME280;885;42.626;23.200;2022-10-31T11:03:40;92473.97;;;27.11;37.39
1776;BME280;885;42.626;23.200;2022-10-31T11:06:17;92780.28;;;27.35;36.42
1776;BME280;885;42.626;23.200;2022-10-31T11:08:47;92983.59;;;27.38;37.31
1776;BME280;885;42.626;23.200;2022-10-31T11:11:23;92511.97;;;27.15;37.49
1776;BME280;885;42.626;23.200;2022-10-31T11:13:56;92663.28;;;27.29;37.50
1776;BME280;885;42.626;23.200;2022-10-31T11:16:30;93102.16;;;27.53;36.67
1776;BME280;885;42.626;23.200;2022-10-31T11:19:08;93573.66;;;27.83;36.42
1776;BME280;885;42.626;23.200;2022-10-31T11:21:40;94039.06;;;28.13;35.82
1776;BME280;885;42.626;23.200;2022-10-31T11:24:14;95289.34;;;28.67;35.45
1776;BME280;885;42.626;23.200;2022-10-31T11:26:43;95646.44;;;29.04;33.85
1776;BME280;885;42.626;23.200;2022-10-31T11:29:15;96669.84;;;29.36;34.42
1776;BME280;885;42.626;23.200;2022-10-31T11:31:43;96537.97;;;29.42;33.86
1776;BME280;885;42.626;23.200;2022-10-31T11:34:22;97383.53;;;29.90;33.00
1776;BME280;885;42.626;23.200;2022-10-31T11:36:50;97466.91;;;30.06;32.16
1776;BME280;885;42.626;23.200;2022-10-31T11:39:22;96816.69;;;29.75;32.82
1776;BME280;885;42.626;23.200;2022-10-31T11:41:51;95540.19;;;29.27;33.40
1776;BME280;885;42.626;23.200;2022-10-31T11:44:19;97955.72;;;30.24;33.06
1776;BME280;885;42.626;23.200;2022-10-31T11:46:49;98262.38;;;30.51;32.18
1776;BME280;885;42.626;23.200;2022-10-31T11:49:19;96604.81;;;29.71;33.22
1776;BME280;885;42.626;23.200;2022-10-31T11:51:49;97717.81;;;30.30;32.20
1776;BME280;885;42.626;23.200;2022-10-31T11:54:22;100048.00;;;31.27;31.10
1776;BME280;885;42.626;23.200;2022-10-31T11:56:50;101741.66;;;31.96;30.44
1776;BME280;885;42.626;23.200;2022-10-31T11:59:21;103094.13;;;32.54;30.20
1776;BME280;885;42.626;23.200;2022-10-31T12:01:51;104596.38;;;33.19;29.35
1776;BME280;885;42.626;23.200;2022-10-31T12:04:25;105057.81;;;33.33;29.23
1776;BME280;885;42.626;23.200;2022-10-31T12:06:55;106645.31;;;34.06;27.89
1776;BME280;885;42.626;23.200;2022-10-31T12:09:23;106273.72;;;34.02;28.25
1776;BME280;885;42.626;23.200;2022-10-31T12:12:08;105919.31;;;34.06;27.67
1776;BME280;885;42.626;23.200;2022-10-31T12:14:43;101303.03;;;32.40;29.48
1776;BME280;885;42.626;23.200;2022-10-31T12:17:15;97832.44;;;31.14;30.27
1776;BME280;885;42.626;23.200;2022-10-31T12:19:49;91648.72;;;27.92;34.24
1776;BME280;885;42.626;23.200;2022-10-31T12:22:24;90157.47;;;26.94;36.03
1776;BME280;885;42.626;23.200;2022-10-31T12:25:07;89259.81;;;26.28;37.25
1776;BME280;885;42.626;23.200;2022-10-31T12:27:55;88734.25;;;25.86;38.01
1776;BME280;885;42.626;23.200;2022-10-31T12:30:31;88162.84;;;25.44;38.97
1776;BME280;885;42.626;23.200;2022-10-31T12:36:15;86963.13;;;24.45;41.38
1776;BME280;885;42.626;23.200;2022-10-31T12:39:10;86713.28;;;24.18;42.67
1776;BME280;885;42.626;23.200;2022-10-31T12:41:46;86562.34;;;23.99;43.40
1776;BME280;885;42.626;23.200;2022-10-31T12:44:41;86173.59;;;23.62;44.68
1776;BME280;885;42.626;23.200;2022-10-31T12:50:20;85517.63;;;23.04;45.93
1776;BME280;885;42.626;23.200;2022-10-31T12:53:01;85076.75;;;22.65;46.62
1776;BME280;885;42.626;23.200;2022-10-31T12:55:41;84820.34;;;22.31;48.16
1776;BME280;885;42.626;23.200;2022-10-31T12:58:12;84244.72;;;21.70;48.94
1776;BME280;885;42.626;23.200;2022-10-31T13:00:44;84110.19;;;21.58;49.97
1776;BME280;885;42.626;23.200;2022-10-31T13:03:22;83944.47;;;21.35;50.86
1776;BME280;885;42.626;23.200;2022-10-31T13:05:53;83783.03;;;21.14;51.58
1776;BME280;885;42.626;23.200;2022-10-31T13:08:27;83675.19;;;20.98;52.20
1776;BME280;885;42.626;23.200;2022-10-31T13:11:01;83620.91;;;20.87;52.89
1776;BME280;885;42.626;23.200;2022-10-31T13:13:32;83739.84;;;21.01;52.99
1776;BME280;885;42.626;23.200;2022-10-31T13:16:07;84060.56;;;21.31;52.26
1776;BME280;885;42.626;23.200;2022-10-31T13:18:40;84156.13;;;21.43;51.87
1776;BME280;885;42.626;23.200;2022-10-31T13:21:12;84089.19;;;21.40;51.72
1776;BME280;885;42.626;23.200;2022-10-31T13:23:45;84041.25;;;21.30;52.42
1776;BME280;885;42.626;23.200;2022-10-31T13:26:21;84156.78;;;21.43;52.20
1776;BME280;885;42.626;23.200;2022-10-31T13:28:54;84964.22;;;22.20;50.92
1776;BME280;885;42.626;23.200;2022-10-31T13:31:24;86829.09;;;23.88;46.80
1776;BME280;885;42.626;23.200;2022-10-31T13:33:54;89787.22;;;26.11;41.74
1776;BME280;885;42.626;23.200;2022-10-31T13:36:28;93495.06;;;28.32;37.59
1776;BME280;885;42.626;23.200;2022-10-31T13:39:05;95370.56;;;29.47;34.76
1776;BME280;885;42.626;23.200;2022-10-31T13:41:43;98208.72;;;30.62;34.15
1776;BME280;885;42.626;23.200;2022-10-31T13:44:15;101123.81;;;31.84;32.32
1776;BME280;885;42.626;23.200;2022-10-31T13:46:43;103057.78;;;32.74;31.11
1776;BME280;885;42.626;23.200;2022-10-31T13:49:26;103453.66;;;32.96;30.10